createdAt,value
2023-05-25T00:01:00.483Z,22.20
2023-05-25T00:03:31.646Z,22.34
2023-05-25T00:06:03.588Z,22.22
2023-05-25T00:08:31.934Z,22.08
2023-05-25T00:10:59.656Z,21.94
2023-05-25T00:13:27.597Z,22.12
2023-05-25T00:15:56.114Z,22.18
2023-05-25T00:18:25.057Z,22.45
2023-05-25T00:20:55.822Z,22.42
2023-05-25T00:23:23.915Z,22.10
2023-05-25T00:25:51.984Z,21.99
2023-05-25T00:28:19.991Z,22.05
2023-05-25T00:30:48.358Z,22.10
2023-05-25T00:33:17.152Z,21.99
2023-05-25T00:35:46.789Z,21.89
2023-05-25T00:38:17.804Z,22.08
2023-05-25T00:40:46.336Z,22.33
2023-05-25T00:43:14.229Z,22.32
2023-05-25T00:45:42.605Z,22.33
2023-05-25T00:48:11.616Z,22.37
2023-05-25T00:50:40.783Z,22.33
2023-05-25T00:53:10.261Z,22.19
2023-05-25T00:55:50.743Z,21.60
2023-05-25T00:58:22.056Z,21.27
2023-05-25T01:00:53.535Z,20.95
2023-05-25T01:03:28.052Z,20.85
2023-05-25T01:05:58.389Z,20.94
2023-05-25T01:08:30.108Z,20.98
2023-05-25T01:10:58.964Z,21.19
2023-05-25T01:13:28.575Z,21.50
2023-05-25T01:15:57.643Z,21.60
2023-05-25T01:18:25.231Z,21.29
2023-05-25T01:21:00.155Z,21.23
2023-05-25T01:23:35.350Z,21.20
2023-05-25T01:26:09.842Z,21.03
2023-05-25T01:28:46.588Z,20.76
2023-05-25T01:31:16.434Z,20.68
2023-05-25T01:33:45.972Z,20.09
2023-05-25T01:36:13.963Z,20.01
2023-05-25T01:38:42.514Z,19.91
2023-05-25T01:41:11.219Z,19.65
2023-05-25T01:43:39.028Z,19.43
2023-05-25T01:46:27.515Z,19.65
2023-05-25T01:49:18.825Z,19.66
2023-05-25T01:52:07.064Z,19.31
2023-05-25T01:54:47.317Z,19.23
2023-05-25T01:57:18.759Z,19.46
2023-05-25T01:59:49.630Z,19.50
2023-05-25T02:02:20.655Z,19.48
2023-05-25T02:04:50.054Z,19.74
2023-05-25T02:07:18.645Z,19.79
2023-05-25T02:09:46.705Z,20.06
2023-05-25T02:12:15.069Z,20.23
2023-05-25T02:14:42.996Z,20.12
2023-05-25T02:17:12.909Z,20.18
2023-05-25T02:19:40.942Z,20.28
2023-05-25T02:22:09.207Z,20.29
2023-05-25T02:24:38.198Z,20.09
2023-05-25T02:27:13.020Z,20.21
2023-05-25T02:29:42.964Z,20.23
2023-05-25T02:32:11.390Z,20.40
2023-05-25T02:34:40.055Z,20.40
2023-05-25T02:37:08.136Z,20.47
2023-05-25T02:39:36.413Z,20.43
2023-05-25T02:42:04.915Z,20.63
2023-05-25T02:44:32.752Z,20.66
2023-05-25T02:47:01.051Z,20.39
2023-05-25T02:49:30.127Z,20.29
2023-05-25T02:51:58.495Z,20.21
2023-05-25T02:54:29.539Z,20.15
2023-05-25T02:56:57.382Z,20.01
2023-05-25T02:59:25.883Z,19.78
2023-05-25T03:01:53.546Z,19.80
2023-05-25T03:04:22.102Z,19.65
2023-05-25T03:06:50.107Z,19.59
2023-05-25T03:09:19.910Z,19.69
2023-05-25T03:11:50.229Z,19.58
2023-05-25T03:14:20.688Z,19.49
2023-05-25T03:16:57.046Z,19.66
2023-05-25T03:19:25.915Z,19.45
2023-05-25T03:21:54.209Z,19.43
2023-05-25T03:24:22.453Z,19.18
2023-05-25T03:26:50.155Z,19.54
2023-05-25T03:29:18.507Z,19.42
2023-05-25T03:31:46.810Z,19.66
2023-05-25T03:34:14.952Z,19.66
2023-05-25T03:36:46.000Z,19.53
2023-05-25T03:39:15.119Z,19.46
2023-05-25T03:41:44.382Z,19.43
2023-05-25T03:44:12.659Z,19.40
2023-05-25T03:46:41.246Z,19.36
2023-05-25T03:49:13.883Z,19.69
2023-05-25T03:51:43.380Z,19.83
2023-05-25T03:54:12.056Z,20.06
2023-05-25T03:56:39.726Z,20.02
2023-05-25T03:59:08.250Z,20.24
2023-05-25T04:01:39.003Z,20.21
2023-05-25T04:04:07.979Z,20.26
2023-05-25T04:06:37.868Z,20.33
2023-05-25T04:09:06.691Z,20.45
2023-05-25T04:11:34.381Z,20.68
2023-05-25T04:14:02.839Z,20.52
2023-05-25T04:16:33.900Z,20.41
2023-05-25T04:19:03.589Z,20.20
2023-05-25T04:21:32.287Z,20.44
2023-05-25T04:24:01.315Z,20.55
2023-05-25T04:26:36.908Z,20.57
2023-05-25T04:29:05.236Z,20.67
2023-05-25T04:32:11.744Z,20.60
2023-05-25T04:34:56.823Z,20.54
2023-05-25T04:37:27.690Z,20.50
2023-05-25T04:39:58.373Z,20.55
2023-05-25T04:42:27.057Z,20.63
2023-05-25T04:44:56.432Z,20.45
2023-05-25T04:47:25.222Z,20.69
2023-05-25T04:49:54.020Z,20.71
2023-05-25T04:52:21.747Z,20.66
2023-05-25T04:54:49.326Z,20.62
2023-05-25T04:57:17.515Z,20.71
2023-05-25T04:59:45.790Z,20.61
2023-05-25T05:02:13.553Z,20.60
2023-05-25T05:04:42.476Z,20.83
2023-05-25T05:07:10.375Z,20.81
2023-05-25T05:09:38.395Z,20.89
2023-05-25T05:12:08.126Z,21.06
2023-05-25T05:14:40.670Z,20.97
2023-05-25T05:17:08.732Z,20.97
2023-05-25T05:19:36.448Z,20.92
2023-05-25T05:22:05.610Z,21.04
2023-05-25T05:24:34.786Z,21.16
2023-05-25T05:27:04.940Z,21.36
2023-05-25T05:29:44.481Z,21.04
2023-05-25T05:32:12.683Z,20.94
2023-05-25T05:34:41.076Z,20.91
2023-05-25T05:37:18.507Z,20.90
2023-05-25T05:39:47.291Z,20.81
2023-05-25T05:42:17.500Z,21.25
2023-05-25T05:44:45.777Z,21.11
2023-05-25T05:47:14.098Z,21.11
2023-05-25T05:49:41.946Z,21.32
2023-05-25T05:52:10.489Z,21.24
2023-05-25T05:54:38.884Z,21.46
2023-05-25T05:57:14.345Z,21.57
2023-05-25T05:59:43.163Z,21.39
2023-05-25T06:02:10.974Z,21.55
2023-05-25T06:04:39.063Z,21.56
2023-05-25T06:07:07.175Z,21.64
2023-05-25T06:09:35.898Z,21.78
2023-05-25T06:12:05.053Z,21.70
2023-05-25T06:14:33.045Z,21.99
2023-05-25T06:17:03.609Z,22.00
2023-05-25T06:19:31.695Z,22.03
2023-05-25T06:21:59.672Z,21.68
2023-05-25T06:24:28.478Z,21.53
2023-05-25T06:26:57.355Z,21.46
2023-05-25T06:29:26.094Z,21.35
2023-05-25T06:32:01.799Z,21.62
2023-05-25T06:34:32.477Z,21.48
2023-05-25T06:37:08.994Z,21.52
2023-05-25T06:39:37.703Z,21.57
2023-05-25T06:42:06.553Z,21.08
2023-05-25T06:44:35.095Z,21.24
2023-05-25T06:47:03.480Z,21.26
2023-05-25T06:49:32.440Z,21.38
2023-05-25T06:52:00.705Z,21.70
2023-05-25T06:54:28.424Z,21.57
2023-05-25T06:56:56.213Z,22.07
2023-05-25T06:59:24.015Z,21.89
2023-05-25T07:01:52.141Z,21.94
2023-05-25T07:04:19.904Z,22.15
2023-05-25T07:06:48.397Z,22.04
2023-05-25T07:09:17.356Z,22.61
2023-05-25T07:11:45.399Z,22.58
2023-05-25T07:14:13.829Z,22.64
2023-05-25T07:16:42.484Z,22.91
2023-05-25T07:19:11.255Z,23.59
2023-05-25T07:21:39.070Z,23.63
2023-05-25T07:24:07.261Z,23.39
2023-05-25T07:26:36.625Z,23.42
2023-05-25T07:29:05.821Z,23.22
2023-05-25T07:31:33.589Z,23.19
2023-05-25T07:34:03.767Z,23.47
2023-05-25T07:36:33.764Z,23.76
2023-05-25T07:39:01.887Z,23.54
2023-05-25T07:41:29.884Z,23.50
2023-05-25T07:43:57.532Z,23.11
2023-05-25T07:46:26.632Z,23.63
2023-05-25T07:48:56.335Z,23.38
2023-05-25T07:51:26.489Z,23.30
2023-05-25T07:53:55.406Z,23.69
2023-05-25T07:56:23.821Z,23.48
2023-05-25T07:58:52.083Z,23.76
2023-05-25T08:01:20.107Z,23.15
2023-05-25T08:03:49.967Z,23.10
2023-05-25T08:06:18.602Z,23.31
2023-05-25T08:08:47.248Z,23.41
2023-05-25T08:11:15.851Z,23.08
2023-05-25T08:13:44.679Z,23.35
2023-05-25T08:16:12.438Z,23.37
2023-05-25T08:18:41.918Z,23.24
2023-05-25T08:21:09.934Z,23.65
2023-05-25T08:23:42.404Z,23.52
2023-05-25T08:26:31.025Z,23.56
2023-05-25T08:29:00.936Z,23.18
2023-05-25T08:31:28.749Z,23.44
2023-05-25T08:33:56.944Z,23.37
2023-05-25T08:36:26.094Z,23.15
2023-05-25T08:38:54.197Z,23.46
2023-05-25T08:41:21.880Z,23.43
2023-05-25T08:43:50.379Z,23.17
2023-05-25T08:46:38.044Z,23.23
2023-05-25T08:49:13.755Z,22.98
2023-05-25T08:51:53.096Z,23.19
2023-05-25T08:54:30.995Z,23.12
2023-05-25T08:57:06.171Z,23.21
2023-05-25T08:59:48.449Z,23.56
2023-05-25T09:02:31.578Z,24.10
2023-05-25T09:05:01.755Z,24.13
2023-05-25T09:07:32.321Z,23.28
2023-05-25T09:10:01.638Z,23.73
2023-05-25T09:12:32.632Z,23.91
2023-05-25T09:15:00.590Z,24.57
2023-05-25T09:17:28.856Z,24.82
2023-05-25T09:19:57.113Z,25.12
2023-05-25T09:22:24.796Z,24.89
2023-05-25T09:24:53.839Z,25.12
2023-05-25T09:27:23.312Z,25.57
2023-05-25T09:29:51.806Z,25.95
2023-05-25T09:32:20.279Z,26.09
2023-05-25T09:34:48.791Z,26.31
2023-05-25T09:37:19.368Z,26.49
2023-05-25T09:39:48.106Z,26.28
2023-05-25T09:42:17.119Z,26.58
2023-05-25T09:44:45.479Z,26.32
2023-05-25T09:47:15.498Z,26.30
2023-05-25T09:49:44.597Z,26.51
2023-05-25T09:52:12.984Z,26.07
2023-05-25T09:54:44.998Z,26.48
2023-05-25T09:57:13.544Z,26.88
2023-05-25T09:59:42.226Z,26.86
2023-05-25T10:02:09.906Z,27.79
2023-05-25T10:04:38.133Z,27.55
2023-05-25T10:07:07.020Z,27.52
2023-05-25T10:09:41.870Z,28.16
2023-05-25T10:12:11.750Z,28.44
2023-05-25T10:14:40.228Z,28.96
2023-05-25T10:17:11.972Z,29.47
2023-05-25T10:20:00.690Z,29.36
2023-05-25T10:22:34.158Z,29.44
2023-05-25T10:25:36.328Z,30.19
2023-05-25T10:28:14.075Z,30.51
2023-05-25T10:30:43.566Z,32.01
2023-05-25T10:33:12.723Z,31.30
2023-05-25T10:36:01.717Z,31.11
2023-05-25T10:38:34.346Z,32.44
2023-05-25T10:41:06.051Z,32.56
2023-05-25T10:43:34.280Z,31.83
2023-05-25T10:46:02.708Z,29.74
2023-05-25T10:48:40.133Z,29.35
2023-05-25T10:51:10.087Z,29.41
2023-05-25T10:53:43.419Z,29.85
2023-05-25T10:56:12.447Z,29.64
2023-05-25T10:58:44.912Z,29.57
2023-05-25T11:01:15.185Z,29.83
2023-05-25T11:03:56.834Z,29.66
2023-05-25T11:06:44.789Z,30.19
2023-05-25T11:09:26.879Z,30.73
2023-05-25T11:11:59.770Z,31.30
2023-05-25T11:14:28.350Z,31.30
2023-05-25T11:17:15.045Z,31.74
2023-05-25T11:19:52.349Z,32.07
2023-05-25T11:22:35.280Z,31.53
2023-05-25T11:25:40.156Z,31.81
2023-05-25T11:28:11.470Z,33.20
2023-05-25T11:30:41.536Z,31.59
2023-05-25T11:33:09.328Z,32.34
2023-05-25T11:35:37.406Z,33.66
2023-05-25T11:38:07.115Z,32.94
2023-05-25T11:40:36.966Z,33.69
2023-05-25T11:43:08.223Z,33.16
2023-05-25T11:45:37.435Z,33.63
2023-05-25T11:48:05.985Z,34.27
2023-05-25T11:50:34.197Z,34.32
2023-05-25T11:53:07.298Z,35.71
2023-05-25T11:55:35.437Z,35.71
2023-05-25T11:58:03.197Z,36.58
2023-05-25T12:00:31.618Z,35.86
2023-05-25T12:02:59.746Z,35.50
2023-05-25T12:05:37.969Z,36.31
2023-05-25T12:08:07.044Z,37.71
2023-05-25T12:10:49.981Z,37.28
2023-05-25T12:13:17.962Z,37.79
2023-05-25T12:15:46.119Z,36.71
2023-05-25T12:18:15.003Z,35.69
2023-05-25T12:20:43.093Z,34.67
2023-05-25T12:23:11.158Z,35.47
2023-05-25T12:25:50.377Z,36.00
2023-05-25T12:28:19.754Z,36.77
2023-05-25T12:30:47.907Z,35.32
2023-05-25T12:33:15.749Z,36.97
2023-05-25T12:36:15.756Z,38.45
2023-05-25T12:38:58.591Z,40.07
2023-05-25T12:41:26.405Z,39.00
2023-05-25T12:43:53.999Z,38.27
2023-05-25T12:46:26.104Z,38.04
2023-05-25T12:48:53.996Z,38.34
2023-05-25T12:51:22.715Z,40.77
2023-05-25T12:53:51.793Z,40.74
2023-05-25T12:56:20.102Z,40.53
2023-05-25T12:58:47.706Z,41.77
2023-05-25T13:01:15.962Z,41.45
2023-05-25T13:03:44.007Z,39.64
2023-05-25T13:06:11.731Z,41.21
2023-05-25T13:08:39.361Z,42.95
2023-05-25T13:11:07.445Z,41.71
2023-05-25T13:13:35.926Z,40.06
2023-05-25T13:16:04.350Z,40.23
2023-05-25T13:18:32.313Z,39.74
2023-05-25T13:21:00.954Z,41.29
2023-05-25T13:23:29.700Z,41.69
2023-05-25T13:25:57.280Z,40.81
2023-05-25T13:28:25.446Z,40.69
2023-05-25T13:30:53.588Z,42.39
2023-05-25T13:33:21.694Z,39.90
2023-05-25T13:35:58.963Z,41.61
2023-05-25T13:38:29.625Z,40.76
2023-05-25T13:40:57.789Z,42.54
2023-05-25T13:43:26.131Z,41.82
2023-05-25T13:45:54.068Z,41.78
2023-05-25T13:48:22.436Z,41.23
2023-05-25T13:50:50.599Z,43.60
2023-05-25T13:53:18.346Z,41.42
2023-05-25T13:55:45.990Z,40.70
2023-05-25T13:58:13.933Z,42.14
2023-05-25T14:00:42.352Z,43.40
2023-05-25T14:03:10.795Z,44.82
2023-05-25T14:05:38.905Z,44.28
2023-05-25T14:08:06.912Z,45.99
2023-05-25T14:10:35.087Z,41.44
2023-05-25T14:13:02.996Z,41.94
2023-05-25T14:15:30.878Z,40.93
2023-05-25T14:17:58.960Z,42.89
2023-05-25T14:20:27.162Z,44.84
2023-05-25T14:22:55.510Z,46.25
2023-05-25T14:25:24.123Z,45.36
2023-05-25T14:27:51.758Z,45.05
2023-05-25T14:30:19.885Z,42.89
2023-05-25T14:32:48.034Z,43.64
2023-05-25T14:35:16.135Z,41.98
2023-05-25T14:37:44.410Z,43.70
2023-05-25T14:40:12.642Z,44.04
2023-05-25T14:42:40.442Z,41.71
2023-05-25T14:45:11.235Z,41.23
2023-05-25T14:47:39.704Z,40.11
2023-05-25T14:50:07.910Z,41.01
2023-05-25T14:52:37.333Z,39.94
2023-05-25T14:55:05.846Z,39.20
2023-05-25T14:57:34.054Z,38.92
2023-05-25T15:00:03.115Z,41.86
2023-05-25T15:02:31.486Z,43.42
2023-05-25T15:04:59.524Z,44.54
2023-05-25T15:07:27.631Z,43.39
2023-05-25T15:09:55.316Z,42.29
2023-05-25T15:12:23.339Z,43.92
2023-05-25T15:14:50.987Z,43.64
2023-05-25T15:17:19.009Z,42.44
2023-05-25T15:19:46.599Z,42.02
2023-05-25T15:22:14.979Z,41.56
2023-05-25T15:24:42.864Z,43.01
2023-05-25T15:27:10.894Z,45.03
2023-05-25T15:29:39.097Z,44.97
2023-05-25T15:32:09.661Z,43.98
2023-05-25T15:34:37.893Z,42.79
2023-05-25T15:37:05.632Z,37.17
2023-05-25T15:39:33.806Z,37.38
2023-05-25T15:42:01.906Z,40.25
2023-05-25T15:44:30.434Z,36.94
2023-05-25T15:46:58.178Z,38.04
2023-05-25T15:49:26.108Z,39.79
2023-05-25T15:51:54.146Z,38.61
2023-05-25T15:54:21.849Z,36.68
2023-05-25T15:56:49.612Z,36.11
2023-05-25T15:59:17.345Z,34.71
2023-05-25T16:01:45.503Z,37.14
2023-05-25T16:04:13.638Z,36.48
2023-05-25T16:06:41.726Z,36.38
2023-05-25T16:09:09.347Z,36.12
2023-05-25T16:11:37.206Z,35.10
2023-05-25T16:14:05.625Z,36.55
2023-05-25T16:16:33.352Z,35.86
2023-05-25T16:19:01.101Z,35.16
2023-05-25T16:21:29.019Z,34.88
2023-05-25T16:23:57.636Z,33.06
2023-05-25T16:26:26.603Z,34.11
2023-05-25T16:28:55.098Z,33.29
2023-05-25T16:31:23.157Z,32.73
2023-05-25T16:33:50.848Z,34.17
2023-05-25T16:36:18.930Z,33.11
2023-05-25T16:38:46.941Z,34.34
2023-05-25T16:41:15.083Z,35.53
2023-05-25T16:43:42.691Z,36.32
2023-05-25T16:46:10.805Z,37.28
2023-05-25T16:48:38.428Z,35.69
2023-05-25T16:51:07.456Z,35.82
2023-05-25T16:53:35.650Z,37.05
2023-05-25T16:56:03.511Z,36.68
2023-05-25T16:58:31.178Z,35.92
2023-05-25T17:00:58.979Z,37.48
2023-05-25T17:03:26.700Z,37.03
2023-05-25T17:05:54.365Z,36.14
2023-05-25T17:08:22.162Z,34.98
2023-05-25T17:10:50.112Z,34.72
2023-05-25T17:13:17.764Z,35.08
2023-05-25T17:15:46.041Z,34.08
2023-05-25T17:18:13.999Z,32.41
2023-05-25T17:20:42.149Z,30.71
2023-05-25T17:23:10.875Z,30.58
2023-05-25T17:25:39.502Z,29.32
2023-05-25T17:28:07.168Z,28.73
2023-05-25T17:30:34.999Z,28.50
2023-05-25T17:33:02.589Z,27.95
2023-05-25T17:35:30.621Z,27.80
2023-05-25T17:37:58.272Z,27.65
2023-05-25T17:40:25.961Z,27.41
2023-05-25T17:42:54.057Z,27.18
2023-05-25T17:45:22.101Z,26.87
2023-05-25T17:47:50.749Z,27.04
2023-05-25T17:50:18.435Z,26.64
2023-05-25T17:52:46.809Z,26.81
2023-05-25T17:55:14.383Z,26.79
2023-05-25T17:57:42.483Z,26.63
2023-05-25T18:00:11.100Z,26.62
2023-05-25T18:02:42.456Z,26.66
2023-05-25T18:05:10.568Z,26.67
2023-05-25T18:07:38.206Z,26.62
2023-05-25T18:10:06.066Z,26.39
2023-05-25T18:12:34.220Z,26.15
2023-05-25T18:15:02.236Z,26.23
2023-05-25T18:17:29.966Z,26.50
2023-05-25T18:19:58.061Z,26.52
2023-05-25T18:22:25.649Z,26.69
2023-05-25T18:24:53.191Z,26.60
2023-05-25T18:27:21.791Z,26.50
2023-05-25T18:29:49.431Z,26.47
2023-05-25T18:32:18.037Z,26.23
2023-05-25T18:34:46.192Z,26.14
2023-05-25T18:37:14.450Z,25.99
2023-05-25T18:39:42.608Z,25.84
2023-05-25T18:42:10.204Z,26.07
2023-05-25T18:44:38.824Z,25.97
2023-05-25T18:47:06.590Z,25.96
2023-05-25T18:49:36.110Z,25.99
2023-05-25T18:52:04.392Z,25.80
2023-05-25T18:54:32.461Z,25.82
2023-05-25T18:57:03.580Z,25.75
2023-05-25T18:59:33.431Z,25.85
2023-05-25T19:02:02.065Z,25.87
2023-05-25T19:04:29.619Z,25.94
2023-05-25T19:06:57.608Z,25.86
2023-05-25T19:09:25.601Z,25.68
2023-05-25T19:11:53.622Z,25.72
2023-05-25T19:14:21.818Z,25.51
2023-05-25T19:16:49.498Z,25.44
2023-05-25T19:19:17.229Z,25.53
2023-05-25T19:21:45.987Z,25.41
2023-05-25T19:24:13.690Z,25.33
2023-05-25T19:26:42.175Z,25.41
2023-05-25T19:29:11.229Z,25.36
2023-05-25T19:31:39.794Z,25.40
2023-05-25T19:34:07.467Z,25.38
2023-05-25T19:36:36.761Z,25.25
2023-05-25T19:39:05.029Z,25.21
2023-05-25T19:41:32.650Z,25.22
2023-05-25T19:44:00.333Z,25.09
2023-05-25T19:46:28.002Z,24.87
2023-05-25T19:48:57.795Z,24.62
2023-05-25T19:51:25.881Z,24.57
2023-05-25T19:53:55.294Z,24.33
2023-05-25T19:56:23.160Z,24.56
2023-05-25T19:58:51.321Z,24.64
2023-05-25T20:01:19.081Z,24.60
2023-05-25T20:03:47.513Z,24.61
2023-05-25T20:06:15.478Z,24.45
2023-05-25T20:08:43.157Z,24.58
2023-05-25T20:11:11.454Z,24.65
2023-05-25T20:13:39.258Z,24.70
2023-05-25T20:16:11.125Z,24.59
2023-05-25T20:18:39.166Z,24.53
2023-05-25T20:21:06.889Z,24.52
2023-05-25T20:23:35.447Z,24.28
2023-05-25T20:26:03.111Z,24.33
2023-05-25T20:28:30.759Z,24.37
2023-05-25T20:30:58.855Z,24.35
2023-05-25T20:33:26.896Z,24.33
2023-05-25T20:35:55.632Z,24.51
2023-05-25T20:38:24.771Z,24.54
2023-05-25T20:40:53.026Z,24.59
2023-05-25T20:43:21.107Z,24.38
2023-05-25T20:45:49.026Z,24.08
2023-05-25T20:48:17.341Z,24.15
2023-05-25T20:50:44.972Z,23.94
2023-05-25T20:53:12.721Z,23.90
2023-05-25T20:55:40.451Z,24.11
2023-05-25T20:58:08.239Z,24.00
2023-05-25T21:00:36.642Z,23.83
2023-05-25T21:03:05.883Z,23.85
2023-05-25T21:05:34.116Z,23.84
2023-05-25T21:08:03.615Z,23.87
2023-05-25T21:10:31.777Z,23.80
2023-05-25T21:12:59.632Z,23.75
2023-05-25T21:15:27.804Z,23.63
2023-05-25T21:17:55.429Z,23.61
2023-05-25T21:20:23.561Z,23.48
2023-05-25T21:22:51.971Z,23.60
2023-05-25T21:25:20.947Z,23.61
2023-05-25T21:27:48.636Z,23.32
2023-05-25T21:30:16.618Z,23.18
2023-05-25T21:32:44.710Z,23.06
2023-05-25T21:35:12.687Z,23.16
2023-05-25T21:37:40.691Z,23.21
2023-05-25T21:40:08.778Z,23.07
2023-05-25T21:42:36.490Z,23.03
2023-05-25T21:45:05.030Z,22.97
2023-05-25T21:47:34.474Z,22.88
2023-05-25T21:50:02.651Z,22.84
2023-05-25T21:52:30.803Z,22.76
2023-05-25T21:54:58.941Z,22.71
2023-05-25T21:57:27.169Z,22.79
2023-05-25T21:59:59.331Z,22.49
2023-05-25T22:02:27.973Z,22.56
2023-05-25T22:04:55.778Z,22.50
2023-05-25T22:07:23.814Z,22.80
2023-05-25T22:09:51.959Z,22.86
2023-05-25T22:12:20.933Z,22.93
2023-05-25T22:14:48.568Z,23.03
2023-05-25T22:17:19.012Z,22.88
2023-05-25T22:19:55.364Z,22.87
2023-05-25T22:22:34.046Z,22.69
2023-05-25T22:25:02.083Z,22.60
2023-05-25T22:27:30.753Z,22.62
2023-05-25T22:29:58.863Z,22.51
2023-05-25T22:32:27.611Z,22.53
2023-05-25T22:34:55.283Z,22.48
2023-05-25T22:37:22.976Z,22.44
2023-05-25T22:39:51.562Z,22.50
2023-05-25T22:42:19.251Z,22.30
2023-05-25T22:44:49.294Z,22.38
2023-05-25T22:47:17.992Z,22.31
2023-05-25T22:49:45.912Z,22.17
2023-05-25T22:52:13.934Z,22.12
2023-05-25T22:54:41.984Z,22.09
2023-05-25T22:57:10.706Z,22.34
2023-05-25T22:59:38.753Z,22.41
2023-05-25T23:02:06.528Z,22.36
2023-05-25T23:04:36.678Z,22.24
2023-05-25T23:07:04.955Z,22.18
2023-05-25T23:09:32.993Z,22.28
2023-05-25T23:12:00.989Z,22.05
2023-05-25T23:14:30.443Z,21.87
2023-05-25T23:16:58.235Z,21.86
2023-05-25T23:19:25.930Z,21.77
2023-05-25T23:21:54.572Z,21.88
2023-05-25T23:24:22.199Z,22.00
2023-05-25T23:26:50.004Z,21.89
2023-05-25T23:29:17.545Z,21.80
2023-05-25T23:31:45.178Z,21.88
2023-05-25T23:34:12.784Z,21.83
2023-05-25T23:36:40.981Z,22.02
2023-05-25T23:39:09.127Z,21.89
2023-05-25T23:41:37.224Z,21.64
2023-05-25T23:44:04.817Z,21.58
2023-05-25T23:46:33.093Z,21.40
2023-05-25T23:49:01.328Z,21.64
2023-05-25T23:51:29.024Z,21.57
2023-05-25T23:53:57.110Z,21.36
2023-05-25T23:56:25.266Z,21.18
2023-05-25T23:58:53.399Z,21.30
